createdAt,value
2019-04-16T00:00:56.882Z,5.60
2019-04-16T00:01:56.847Z,5.65
2019-04-16T00:02:56.831Z,5.57
2019-04-16T00:03:56.823Z,5.53
2019-04-16T00:04:57.601Z,5.56
2019-04-16T00:05:58.926Z,5.58
2019-04-16T00:06:56.795Z,5.51
2019-04-16T00:07:56.784Z,5.51
2019-04-16T00:08:58.225Z,5.49
2019-04-16T00:09:56.759Z,5.43
2019-04-16T00:10:56.748Z,5.45
2019-04-16T00:11:56.749Z,5.46
2019-04-16T00:12:56.733Z,5.48
2019-04-16T00:13:56.858Z,5.40
2019-04-16T00:14:56.701Z,5.45
2019-04-16T00:15:56.689Z,5.45
2019-04-16T00:16:56.679Z,5.39
2019-04-16T00:17:56.681Z,5.35
2019-04-16T00:19:00.927Z,5.33
2019-04-16T00:19:57.643Z,5.22
2019-04-16T00:20:56.649Z,5.27
2019-04-16T00:21:56.629Z,5.25
2019-04-16T00:22:56.627Z,5.18
2019-04-16T00:23:56.607Z,5.24
2019-04-16T00:24:56.591Z,5.30
2019-04-16T00:25:56.764Z,5.24
2019-04-16T00:26:59.341Z,5.24
2019-04-16T00:27:59.597Z,5.27
2019-04-16T00:28:56.616Z,5.21
2019-04-16T00:29:56.583Z,5.20
2019-04-16T00:30:56.760Z,5.30
2019-04-16T00:31:56.651Z,5.21
2019-04-16T00:32:56.503Z,5.24
2019-04-16T00:33:56.507Z,5.18
2019-04-16T00:34:56.487Z,5.09
2019-04-16T00:35:56.485Z,5.07
2019-04-16T00:36:56.459Z,5.13
2019-04-16T00:37:56.451Z,4.97
2019-04-16T00:38:56.445Z,4.91
2019-04-16T00:39:56.974Z,5.02
2019-04-16T00:41:00.747Z,5.00
2019-04-16T00:41:57.454Z,5.10
2019-04-16T00:42:56.401Z,5.04
2019-04-16T00:43:56.394Z,5.04
2019-04-16T00:44:56.379Z,4.97
2019-04-16T00:45:56.367Z,4.97
2019-04-16T00:46:56.419Z,4.94
2019-04-16T00:47:56.345Z,4.96
2019-04-16T00:48:56.335Z,4.97
2019-04-16T00:49:58.855Z,4.96
2019-04-16T00:50:56.309Z,4.94
2019-04-16T00:51:56.306Z,4.97
2019-04-16T00:52:56.289Z,5.04
2019-04-16T00:53:56.278Z,5.00
2019-04-16T00:54:56.265Z,5.15
2019-04-16T00:55:56.262Z,5.04
2019-04-16T00:56:56.247Z,5.09
2019-04-16T00:57:56.238Z,5.09
2019-04-16T00:58:56.227Z,5.07
2019-04-16T00:59:56.766Z,5.04
2019-04-16T01:00:56.211Z,5.07
2019-04-16T01:01:56.325Z,5.04
2019-04-16T01:02:56.436Z,5.00
2019-04-16T01:03:56.384Z,4.91
2019-04-16T01:04:56.312Z,4.88
2019-04-16T01:05:56.258Z,4.80
2019-04-16T01:06:56.466Z,4.84
2019-04-16T01:07:56.475Z,4.82
2019-04-16T01:08:56.127Z,4.89
2019-04-16T01:09:56.113Z,5.00
2019-04-16T01:10:56.105Z,4.96
2019-04-16T01:11:56.089Z,4.96
2019-04-16T01:12:56.092Z,4.96
2019-04-16T01:13:56.316Z,4.97
2019-04-16T01:14:58.918Z,5.07
2019-04-16T01:15:56.053Z,5.06
2019-04-16T01:16:56.033Z,5.18
2019-04-16T01:17:56.027Z,5.15
2019-04-16T01:18:56.011Z,5.17
2019-04-16T01:19:56.002Z,5.07
2019-04-16T01:20:55.993Z,5.10
2019-04-16T01:21:55.992Z,5.22
2019-04-16T01:22:55.971Z,5.15
2019-04-16T01:23:55.962Z,5.15
2019-04-16T01:24:55.948Z,5.15
2019-04-16T01:25:56.242Z,5.15
2019-04-16T01:26:58.266Z,5.10
2019-04-16T01:27:59.873Z,5.22
2019-04-16T01:28:56.905Z,5.07
2019-04-16T01:29:55.891Z,5.15
2019-04-16T01:30:55.893Z,5.13
2019-04-16T01:31:55.871Z,4.97
2019-04-16T01:32:55.864Z,5.10
2019-04-16T01:33:55.855Z,5.03
2019-04-16T01:34:55.842Z,5.04
2019-04-16T01:35:55.833Z,5.06
2019-04-16T01:36:55.822Z,5.07
2019-04-16T01:37:56.793Z,5.07
2019-04-16T01:39:10.988Z,5.09
2019-04-16T01:39:56.789Z,5.22
2019-04-16T01:40:55.775Z,5.13
2019-04-16T01:41:55.765Z,5.18
2019-04-16T01:42:55.748Z,5.15
2019-04-16T01:43:57.195Z,5.15
2019-04-16T01:44:59.377Z,5.09
2019-04-16T01:46:00.851Z,5.03
2019-04-16T01:46:56.709Z,4.97
2019-04-16T01:47:55.697Z,4.97
2019-04-16T01:48:55.685Z,4.97
2019-04-16T01:49:55.673Z,4.97
2019-04-16T01:50:55.675Z,4.91
2019-04-16T01:51:55.649Z,4.91
2019-04-16T01:52:55.643Z,4.92
2019-04-16T01:53:55.627Z,4.96
2019-04-16T01:54:55.706Z,4.92
2019-04-16T01:55:56.953Z,5.02
2019-04-16T01:56:59.459Z,4.97
2019-04-16T01:57:55.593Z,4.89
2019-04-16T01:58:55.580Z,4.86
2019-04-16T01:59:55.565Z,4.89
2019-04-16T02:00:55.558Z,4.94
2019-04-16T02:01:55.559Z,4.86
2019-04-16T02:02:55.553Z,4.89
2019-04-16T02:03:55.527Z,4.91
2019-04-16T02:04:55.521Z,4.88
2019-04-16T02:05:55.613Z,4.84
2019-04-16T02:06:57.242Z,4.89
2019-04-16T02:07:56.325Z,4.85
2019-04-16T02:08:55.483Z,4.86
2019-04-16T02:09:55.459Z,4.82
2019-04-16T02:10:55.444Z,4.85
2019-04-16T02:11:55.441Z,4.82
2019-04-16T02:12:55.435Z,4.85
2019-04-16T02:13:55.423Z,4.84
2019-04-16T02:14:55.415Z,4.86
2019-04-16T02:15:55.399Z,4.86
2019-04-16T02:16:55.996Z,4.88
2019-04-16T02:17:58.688Z,4.80
2019-04-16T02:18:55.361Z,4.85
2019-04-16T02:19:55.362Z,4.84
2019-04-16T02:20:55.339Z,4.88
2019-04-16T02:21:55.332Z,4.91
2019-04-16T02:22:55.321Z,4.82
2019-04-16T02:23:55.307Z,4.82
2019-04-16T02:24:55.297Z,4.78
2019-04-16T02:25:55.297Z,4.89
2019-04-16T02:26:55.535Z,4.86
2019-04-16T02:27:57.092Z,4.82
2019-04-16T02:28:56.478Z,4.88
2019-04-16T02:29:55.241Z,4.88
2019-04-16T02:30:55.235Z,4.89
2019-04-16T02:31:55.230Z,4.91
2019-04-16T02:32:55.238Z,4.91
2019-04-16T02:33:55.205Z,4.91
2019-04-16T02:34:55.207Z,4.94
2019-04-16T02:35:55.179Z,4.99
2019-04-16T02:37:00.553Z,4.92
2019-04-16T02:37:56.159Z,4.88
2019-04-16T02:38:55.162Z,4.92
2019-04-16T02:39:55.138Z,4.94
2019-04-16T02:40:55.124Z,4.86
2019-04-16T02:41:58.059Z,4.82
2019-04-16T02:42:55.105Z,4.86
2019-04-16T02:43:55.097Z,4.84
2019-04-16T02:44:55.084Z,4.77
2019-04-16T02:45:58.063Z,4.77
2019-04-16T02:46:55.068Z,4.73
2019-04-16T02:47:55.050Z,4.75
2019-04-16T02:48:55.045Z,4.75
2019-04-16T02:49:56.750Z,4.70
2019-04-16T02:50:55.019Z,4.73
2019-04-16T02:51:55.007Z,4.70
2019-04-16T02:52:55.001Z,4.63
2019-04-16T02:53:58.901Z,4.70
2019-04-16T02:54:54.984Z,4.78
2019-04-16T02:55:54.960Z,4.82
2019-04-16T02:56:54.957Z,4.75
2019-04-16T02:57:59.481Z,4.73
2019-04-16T02:58:55.930Z,4.66
2019-04-16T02:59:54.917Z,4.58
2019-04-16T03:00:54.905Z,4.62
2019-04-16T03:01:54.901Z,4.59
2019-04-16T03:02:54.893Z,4.62
2019-04-16T03:03:56.244Z,4.55
2019-04-16T03:04:58.182Z,4.58
2019-04-16T03:05:54.858Z,4.52
2019-04-16T03:06:54.858Z,4.51
2019-04-16T03:07:54.834Z,4.51
2019-04-16T03:08:54.824Z,4.50
2019-04-16T03:10:01.157Z,4.54
2019-04-16T03:10:55.811Z,4.52
2019-04-16T03:11:54.809Z,4.51
2019-04-16T03:12:54.789Z,4.51
2019-04-16T03:13:58.334Z,4.37
2019-04-16T03:14:54.760Z,4.50
2019-04-16T03:15:54.759Z,4.47
2019-04-16T03:16:54.742Z,4.48
2019-04-16T03:17:54.733Z,4.47
2019-04-16T03:18:54.723Z,4.51
2019-04-16T03:19:54.729Z,4.52
2019-04-16T03:20:55.713Z,4.60
2019-04-16T03:21:55.771Z,4.50
2019-04-16T03:22:54.681Z,4.58
2019-04-16T03:23:54.671Z,4.52
2019-04-16T03:24:54.659Z,4.42
2019-04-16T03:25:54.645Z,4.52
2019-04-16T03:26:54.646Z,4.47
2019-04-16T03:27:55.117Z,4.36
2019-04-16T03:28:55.699Z,4.54
2019-04-16T03:29:54.601Z,4.52
2019-04-16T03:30:54.604Z,4.50
2019-04-16T03:31:58.214Z,4.44
2019-04-16T03:32:54.574Z,4.44
2019-04-16T03:33:54.570Z,4.42
2019-04-16T03:34:54.547Z,4.33
2019-04-16T03:35:57.574Z,4.33
2019-04-16T03:36:54.545Z,4.24
2019-04-16T03:37:54.533Z,4.20
2019-04-16T03:38:54.507Z,4.24
2019-04-16T03:39:54.499Z,4.30
2019-04-16T03:40:56.077Z,4.23
2019-04-16T03:41:56.182Z,4.16
2019-04-16T03:42:58.923Z,4.22
2019-04-16T03:43:55.455Z,4.18
2019-04-16T03:44:54.503Z,4.14
2019-04-16T03:45:54.447Z,4.16
2019-04-16T03:46:54.436Z,4.16
2019-04-16T03:47:54.424Z,4.15
2019-04-16T03:48:56.099Z,4.12
2019-04-16T03:49:56.412Z,4.14
2019-04-16T03:50:54.382Z,4.08
2019-04-16T03:51:54.373Z,4.05
2019-04-16T03:52:54.363Z,4.08
2019-04-16T03:53:54.368Z,4.09
2019-04-16T03:54:54.731Z,4.05
2019-04-16T03:55:54.590Z,4.14
2019-04-16T03:56:54.316Z,3.97
2019-04-16T03:57:54.325Z,4.02
2019-04-16T03:58:54.303Z,3.93
2019-04-16T03:59:54.288Z,4.00
2019-04-16T04:00:54.281Z,4.00
2019-04-16T04:01:54.276Z,4.04
2019-04-16T04:02:55.154Z,4.14
2019-04-16T04:03:54.519Z,3.97
2019-04-16T04:04:54.235Z,4.06
2019-04-16T04:05:54.237Z,4.08
2019-04-16T04:06:54.221Z,4.02
2019-04-16T04:07:55.449Z,3.93
2019-04-16T04:08:54.191Z,3.86
2019-04-16T04:09:55.175Z,3.94
2019-04-16T04:10:54.173Z,3.98
2019-04-16T04:11:54.172Z,3.93
2019-04-16T04:12:54.151Z,4.00
2019-04-16T04:13:54.141Z,4.02
2019-04-16T04:14:55.092Z,3.94
2019-04-16T04:15:55.215Z,4.02
2019-04-16T04:16:54.111Z,3.93
2019-04-16T04:17:54.111Z,3.93
2019-04-16T04:18:54.087Z,3.98
2019-04-16T04:19:54.106Z,3.93
2019-04-16T04:20:54.069Z,3.98
2019-04-16T04:21:54.484Z,3.94
2019-04-16T04:22:56.772Z,4.14
2019-04-16T04:23:54.041Z,4.00
2019-04-16T04:24:54.035Z,3.98
2019-04-16T04:25:54.015Z,3.94
2019-04-16T04:26:54.003Z,3.97
2019-04-16T04:27:53.994Z,4.00
2019-04-16T04:28:53.987Z,3.94
2019-04-16T04:29:56.527Z,3.98
2019-04-16T04:30:53.970Z,3.94
2019-04-16T04:31:53.954Z,3.97
2019-04-16T04:32:53.950Z,3.96
2019-04-16T04:33:53.939Z,4.00
2019-04-16T04:34:53.931Z,3.98
2019-04-16T04:35:53.922Z,3.93
2019-04-16T04:36:58.869Z,3.91
2019-04-16T04:37:54.889Z,3.83
2019-04-16T04:38:53.877Z,3.79
2019-04-16T04:39:53.865Z,3.83
2019-04-16T04:40:53.865Z,3.88
2019-04-16T04:41:56.469Z,3.80
2019-04-16T04:42:53.842Z,3.83
2019-04-16T04:43:53.826Z,3.84
2019-04-16T04:44:53.833Z,3.83
2019-04-16T04:45:53.803Z,3.90
2019-04-16T04:46:53.797Z,4.02
2019-04-16T04:47:53.780Z,3.91
2019-04-16T04:48:55.741Z,4.00
2019-04-16T04:49:53.761Z,3.94
2019-04-16T04:50:53.746Z,3.94
2019-04-16T04:51:53.737Z,3.98
2019-04-16T04:52:53.734Z,4.00
2019-04-16T04:53:53.715Z,3.94
2019-04-16T04:54:54.122Z,4.02
2019-04-16T04:55:54.400Z,4.06
2019-04-16T04:56:56.434Z,4.15
2019-04-16T04:57:54.677Z,4.12
2019-04-16T04:58:53.666Z,4.20
2019-04-16T04:59:53.655Z,4.18
2019-04-16T05:00:53.650Z,4.23
2019-04-16T05:01:53.636Z,4.18
2019-04-16T05:02:53.629Z,4.27
2019-04-16T05:03:53.629Z,4.30
2019-04-16T05:04:53.605Z,4.33
2019-04-16T05:05:56.066Z,4.33
2019-04-16T05:06:54.438Z,4.37
2019-04-16T05:07:53.571Z,4.47
2019-04-16T05:08:53.561Z,4.54
2019-04-16T05:09:53.554Z,4.59
2019-04-16T05:10:59.772Z,4.65
2019-04-16T05:11:54.526Z,4.62
2019-04-16T05:12:53.813Z,4.54
2019-04-16T05:13:56.478Z,4.52
2019-04-16T05:14:57.371Z,4.51
2019-04-16T05:15:53.487Z,4.59
2019-04-16T05:16:53.491Z,4.62
2019-04-16T05:17:53.460Z,4.63
2019-04-16T05:18:53.459Z,4.65
2019-04-16T05:19:53.445Z,4.75
2019-04-16T05:20:53.440Z,4.67
2019-04-16T05:21:53.425Z,4.85
2019-04-16T05:22:54.503Z,4.75
2019-04-16T05:23:56.789Z,4.84
2019-04-16T05:24:53.391Z,4.92
2019-04-16T05:25:53.381Z,4.80
2019-04-16T05:26:56.272Z,4.88
2019-04-16T05:27:53.358Z,4.88
2019-04-16T05:28:53.348Z,4.92
2019-04-16T05:29:53.345Z,5.02
2019-04-16T05:30:53.325Z,5.03
2019-04-16T05:31:54.565Z,5.06
2019-04-16T05:32:53.300Z,5.07
2019-04-16T05:33:53.296Z,5.18
2019-04-16T05:34:53.275Z,5.25
2019-04-16T05:35:53.271Z,5.12
2019-04-16T05:36:53.269Z,5.28
2019-04-16T05:37:53.245Z,5.27
2019-04-16T05:38:55.749Z,5.40
2019-04-16T05:39:53.230Z,5.38
2019-04-16T05:40:53.215Z,5.45
2019-04-16T05:41:53.597Z,5.54
2019-04-16T05:42:58.248Z,5.67
2019-04-16T05:43:54.189Z,5.79
2019-04-16T05:44:53.175Z,6.27
2019-04-16T05:45:53.165Z,6.99
2019-04-16T05:46:53.147Z,7.89
2019-04-16T05:47:53.141Z,8.37
2019-04-16T05:48:54.011Z,8.55
2019-04-16T05:49:54.470Z,8.98
2019-04-16T05:50:53.111Z,9.42
2019-04-16T05:51:53.089Z,9.60
2019-04-16T05:52:53.109Z,9.69
2019-04-16T05:53:53.072Z,9.91
2019-04-16T05:54:53.064Z,10.26
2019-04-16T05:55:53.051Z,10.40
2019-04-16T05:56:55.525Z,10.55
2019-04-16T05:57:57.954Z,10.73
2019-04-16T05:58:54.015Z,10.52
2019-04-16T05:59:53.011Z,11.02
2019-04-16T06:00:53.001Z,11.00
2019-04-16T06:01:52.990Z,11.27
2019-04-16T06:02:52.982Z,11.25
2019-04-16T06:03:53.310Z,11.07
2019-04-16T06:04:55.615Z,11.15
2019-04-16T06:05:52.952Z,11.42
2019-04-16T06:06:52.934Z,11.55
2019-04-16T06:07:52.929Z,11.88
2019-04-16T06:08:56.071Z,12.23
2019-04-16T06:09:52.901Z,11.99
2019-04-16T06:10:52.887Z,11.47
2019-04-16T06:11:52.880Z,11.37
2019-04-16T06:12:52.865Z,11.82
2019-04-16T06:13:52.864Z,11.73
2019-04-16T06:14:54.046Z,11.42
2019-04-16T06:15:53.921Z,11.22
2019-04-16T06:16:53.376Z,11.27
2019-04-16T06:17:52.817Z,11.76
2019-04-16T06:18:52.798Z,11.70
2019-04-16T06:19:52.791Z,11.78
2019-04-16T06:20:53.702Z,11.72
2019-04-16T06:21:56.397Z,12.21
2019-04-16T06:22:52.758Z,12.04
2019-04-16T06:23:52.749Z,11.67
2019-04-16T06:24:52.753Z,12.14
2019-04-16T06:25:52.733Z,12.71
2019-04-16T06:26:52.722Z,12.65
2019-04-16T06:27:52.710Z,12.97
2019-04-16T06:28:56.402Z,13.42
2019-04-16T06:29:53.683Z,12.67
2019-04-16T06:30:52.677Z,12.39
2019-04-16T06:31:52.658Z,12.39
2019-04-16T06:32:52.650Z,12.31
2019-04-16T06:33:52.639Z,12.77
2019-04-16T06:34:52.632Z,12.74
2019-04-16T06:35:52.617Z,12.87
2019-04-16T06:36:52.608Z,13.30
2019-04-16T06:37:52.599Z,13.20
2019-04-16T06:38:55.017Z,13.08
2019-04-16T06:39:52.597Z,12.87
2019-04-16T06:40:52.575Z,13.11
2019-04-16T06:41:52.802Z,13.29
2019-04-16T06:42:54.261Z,13.60
2019-04-16T06:43:52.541Z,13.84
2019-04-16T06:44:52.523Z,13.66
2019-04-16T06:45:52.563Z,14.09
2019-04-16T06:46:52.501Z,14.47
2019-04-16T06:47:52.497Z,14.65
2019-04-16T06:48:52.478Z,15.01
2019-04-16T06:49:52.469Z,13.62
2019-04-16T06:50:52.458Z,14.10
2019-04-16T06:51:52.445Z,14.36
2019-04-16T06:52:52.436Z,14.58
2019-04-16T06:53:53.952Z,14.39
2019-04-16T06:54:52.414Z,14.43
2019-04-16T06:55:52.403Z,14.46
2019-04-16T06:56:52.392Z,14.92
2019-04-16T06:57:52.382Z,15.19
2019-04-16T06:58:57.195Z,14.83
2019-04-16T06:59:53.357Z,14.73
2019-04-16T07:00:52.346Z,14.54
2019-04-16T07:01:52.339Z,13.54
2019-04-16T07:03:02.204Z,13.63
2019-04-16T07:03:58.489Z,13.67
2019-04-16T07:04:53.303Z,13.77
2019-04-16T07:05:52.295Z,13.19
2019-04-16T07:06:52.281Z,12.74
2019-04-16T07:07:52.273Z,12.41
2019-04-16T07:08:52.265Z,12.19
2019-04-16T07:09:56.707Z,12.27
2019-04-16T07:10:53.241Z,12.35
2019-04-16T07:11:54.722Z,12.21
2019-04-16T07:12:52.315Z,12.16
2019-04-16T07:13:52.203Z,11.88
2019-04-16T07:14:52.197Z,11.79
2019-04-16T07:15:53.304Z,11.98
2019-04-16T07:16:52.179Z,11.99
2019-04-16T07:17:52.170Z,11.88
2019-04-16T07:18:52.154Z,11.60
2019-04-16T07:19:52.147Z,11.51
2019-04-16T07:20:52.135Z,10.96
2019-04-16T07:21:52.138Z,10.60
2019-04-16T07:22:52.910Z,10.64
2019-04-16T07:23:56.853Z,10.78
2019-04-16T07:24:53.168Z,10.99
2019-04-16T07:25:52.089Z,11.19
2019-04-16T07:26:55.940Z,11.37
2019-04-16T07:27:53.743Z,11.25
2019-04-16T07:28:58.507Z,11.32
2019-04-16T07:29:53.347Z,11.17
2019-04-16T07:30:52.029Z,11.14
2019-04-16T07:31:53.494Z,11.35
2019-04-16T07:32:52.003Z,11.36
2019-04-16T07:33:52.001Z,11.29
2019-04-16T07:34:51.993Z,11.39
2019-04-16T07:35:51.971Z,11.28
2019-04-16T07:36:51.957Z,11.28
2019-04-16T07:37:51.949Z,11.52
2019-04-16T07:38:51.943Z,11.73
2019-04-16T07:39:51.927Z,11.60
2019-04-16T07:40:51.925Z,11.62
2019-04-16T07:41:51.917Z,11.67
2019-04-16T07:42:52.420Z,11.80
2019-04-16T07:43:53.056Z,11.90
2019-04-16T07:44:54.894Z,11.85
2019-04-16T07:45:51.868Z,11.83
2019-04-16T07:46:51.857Z,11.67
2019-04-16T07:47:52.466Z,11.83
2019-04-16T07:48:54.653Z,12.02
2019-04-16T07:49:51.829Z,11.64
2019-04-16T07:50:53.050Z,11.72
2019-04-16T07:51:51.795Z,11.91
2019-04-16T07:52:51.800Z,12.21
2019-04-16T07:53:51.778Z,12.42
2019-04-16T07:54:51.768Z,12.67
2019-04-16T07:55:51.759Z,12.96
2019-04-16T07:56:51.746Z,13.08
2019-04-16T07:57:51.733Z,12.74
2019-04-16T07:58:51.776Z,12.96
2019-04-16T07:59:51.721Z,13.25
2019-04-16T08:00:51.703Z,13.42
2019-04-16T08:01:51.693Z,13.85
2019-04-16T08:02:53.651Z,14.21
2019-04-16T08:03:51.693Z,14.27
2019-04-16T08:04:51.662Z,14.64
2019-04-16T08:05:51.651Z,14.72
2019-04-16T08:06:51.640Z,15.03
2019-04-16T08:07:52.886Z,14.70
2019-04-16T08:08:53.936Z,14.84
2019-04-16T08:09:52.611Z,13.71
2019-04-16T08:10:51.601Z,13.33
2019-04-16T08:11:51.601Z,13.69
2019-04-16T08:12:51.565Z,14.33
2019-04-16T08:13:51.560Z,14.83
2019-04-16T08:14:51.569Z,15.09
2019-04-16T08:15:51.539Z,15.64
2019-04-16T08:16:51.533Z,15.92
2019-04-16T08:17:51.516Z,16.04
2019-04-16T08:18:51.504Z,16.05
2019-04-16T08:19:51.500Z,15.78
2019-04-16T08:21:01.303Z,15.90
2019-04-16T08:21:52.499Z,16.05
2019-04-16T08:22:51.467Z,15.57
2019-04-16T08:23:53.006Z,14.37
2019-04-16T08:24:51.441Z,14.45
2019-04-16T08:26:00.266Z,14.39
2019-04-16T08:26:52.423Z,14.09
2019-04-16T08:27:53.984Z,14.28
2019-04-16T08:28:51.404Z,14.69
2019-04-16T08:29:51.391Z,15.23
2019-04-16T08:30:51.379Z,15.17
2019-04-16T08:31:51.366Z,15.17
2019-04-16T08:32:51.369Z,14.69
2019-04-16T08:33:51.349Z,13.92
2019-04-16T08:34:51.344Z,13.28
2019-04-16T08:35:51.321Z,13.49
2019-04-16T08:36:51.318Z,13.22
2019-04-16T08:37:51.305Z,13.25
2019-04-16T08:38:51.294Z,13.52
2019-04-16T08:39:51.291Z,13.84
2019-04-16T08:40:51.269Z,14.20
2019-04-16T08:41:52.374Z,14.33
2019-04-16T08:42:51.249Z,14.12
2019-04-16T08:43:51.244Z,14.12
2019-04-16T08:44:51.230Z,14.40
2019-04-16T08:45:51.216Z,14.61
2019-04-16T08:46:51.210Z,14.73
2019-04-16T08:47:51.196Z,14.81
2019-04-16T08:48:54.090Z,14.64
2019-04-16T08:49:54.135Z,14.47
2019-04-16T08:50:51.159Z,14.72
2019-04-16T08:51:51.167Z,14.65
2019-04-16T08:52:51.146Z,15.01
2019-04-16T08:53:51.125Z,15.10
2019-04-16T08:54:54.677Z,14.83
2019-04-16T08:55:51.111Z,14.91
2019-04-16T08:56:51.103Z,14.75
2019-04-16T08:57:51.090Z,14.60
2019-04-16T08:58:51.075Z,14.69
2019-04-16T08:59:51.070Z,15.09
2019-04-16T09:00:51.057Z,14.86
2019-04-16T09:01:51.404Z,14.70
2019-04-16T09:02:51.035Z,14.68
2019-04-16T09:03:51.020Z,14.61
2019-04-16T09:04:51.010Z,14.62
2019-04-16T09:05:51.001Z,14.72
2019-04-16T09:06:50.987Z,14.47
2019-04-16T09:07:51.676Z,14.28
2019-04-16T09:08:53.199Z,14.39
2019-04-16T09:09:50.971Z,14.35
2019-04-16T09:10:50.958Z,14.28
2019-04-16T09:11:50.937Z,14.46
2019-04-16T09:13:02.362Z,14.58
2019-04-16T09:13:51.940Z,14.20
2019-04-16T09:14:54.907Z,13.88
2019-04-16T09:15:51.901Z,13.81
2019-04-16T09:16:50.892Z,13.84
2019-04-16T09:17:50.880Z,14.04
2019-04-16T09:18:50.865Z,14.27
2019-04-16T09:19:50.868Z,14.54
2019-04-16T09:20:50.845Z,14.37
2019-04-16T09:21:50.845Z,14.32
2019-04-16T09:22:53.658Z,14.57
2019-04-16T09:23:50.813Z,14.64
2019-04-16T09:24:50.799Z,14.54
2019-04-16T09:25:50.789Z,14.73
2019-04-16T09:26:52.768Z,14.83
2019-04-16T09:27:50.767Z,14.91
2019-04-16T09:28:50.754Z,14.18
2019-04-16T09:29:50.745Z,14.32
2019-04-16T09:30:50.758Z,14.54
2019-04-16T09:31:55.082Z,14.70
2019-04-16T09:32:51.723Z,14.89
2019-04-16T09:33:50.701Z,14.81
2019-04-16T09:34:50.691Z,14.18
2019-04-16T09:35:50.680Z,14.17
2019-04-16T09:36:50.677Z,14.20
2019-04-16T09:37:50.661Z,14.14
2019-04-16T09:38:50.646Z,14.12
2019-04-16T09:39:50.638Z,13.96
2019-04-16T09:40:50.631Z,13.69
2019-04-16T09:41:50.625Z,13.71
2019-04-16T09:42:50.879Z,13.89
2019-04-16T09:43:53.777Z,14.04
2019-04-16T09:44:51.590Z,14.04
2019-04-16T09:45:50.573Z,13.84
2019-04-16T09:46:52.049Z,13.88
2019-04-16T09:47:50.563Z,13.82
2019-04-16T09:48:50.547Z,13.81
2019-04-16T09:49:50.533Z,14.00
2019-04-16T09:50:50.518Z,13.97
2019-04-16T09:51:51.242Z,14.17
2019-04-16T09:52:52.382Z,14.24
2019-04-16T09:53:50.506Z,14.37
2019-04-16T09:54:50.482Z,14.60
2019-04-16T09:55:51.217Z,14.51
2019-04-16T09:56:50.453Z,14.73
2019-04-16T09:57:50.442Z,14.98
2019-04-16T09:58:50.433Z,15.07
2019-04-16T09:59:50.419Z,15.27
2019-04-16T10:00:50.407Z,15.16
2019-04-16T10:01:50.397Z,15.23
2019-04-16T10:02:50.405Z,15.09
2019-04-16T10:03:53.494Z,15.47
2019-04-16T10:04:50.367Z,15.16
2019-04-16T10:05:50.353Z,14.58
2019-04-16T10:06:50.345Z,14.50
2019-04-16T10:07:50.350Z,14.58
2019-04-16T10:08:50.333Z,14.83
2019-04-16T10:09:51.373Z,15.06
2019-04-16T10:10:50.302Z,14.46
2019-04-16T10:11:50.306Z,14.12
2019-04-16T10:12:50.282Z,14.12
2019-04-16T10:13:50.266Z,14.28
2019-04-16T10:14:50.291Z,14.39
2019-04-16T10:15:50.246Z,14.68
2019-04-16T10:16:50.246Z,15.02
2019-04-16T10:17:50.242Z,15.19
2019-04-16T10:18:50.224Z,15.35
2019-04-16T10:19:50.206Z,15.75
2019-04-16T10:20:50.232Z,15.74
2019-04-16T10:21:53.411Z,15.53
2019-04-16T10:22:50.170Z,15.93
2019-04-16T10:23:50.174Z,16.66
2019-04-16T10:24:50.157Z,17.15
2019-04-16T10:25:50.156Z,17.52
2019-04-16T10:26:50.142Z,17.90
2019-04-16T10:27:50.152Z,17.72
2019-04-16T10:28:50.108Z,17.07
2019-04-16T10:29:50.099Z,16.86
2019-04-16T10:30:50.084Z,17.14
2019-04-16T10:31:50.075Z,17.07
2019-04-16T10:32:50.072Z,17.19
2019-04-16T10:33:50.054Z,17.18
2019-04-16T10:34:50.067Z,17.08
2019-04-16T10:35:50.037Z,17.56
2019-04-16T10:36:50.024Z,17.44
2019-04-16T10:37:50.019Z,17.18
2019-04-16T10:38:50.014Z,17.68
2019-04-16T10:39:49.988Z,17.79
2019-04-16T10:40:50.001Z,18.33
2019-04-16T10:41:49.976Z,18.08
2019-04-16T10:42:49.973Z,18.08
2019-04-16T10:43:50.003Z,17.04
2019-04-16T10:44:50.033Z,17.12
2019-04-16T10:45:49.985Z,17.56
2019-04-16T10:46:50.019Z,18.14
2019-04-16T10:47:49.899Z,18.48
2019-04-16T10:48:49.912Z,17.79
2019-04-16T10:49:49.890Z,17.06
2019-04-16T10:50:49.877Z,17.01
2019-04-16T10:51:49.865Z,16.98
2019-04-16T10:52:54.071Z,17.51
2019-04-16T10:53:50.852Z,17.79
2019-04-16T10:54:49.848Z,18.18
2019-04-16T10:55:49.838Z,17.43
2019-04-16T10:56:49.807Z,17.12
2019-04-16T10:57:49.799Z,17.18
2019-04-16T10:58:49.788Z,17.38
2019-04-16T10:59:49.785Z,18.00
2019-04-16T11:00:49.787Z,18.41
2019-04-16T11:01:49.773Z,19.16
2019-04-16T11:02:49.741Z,19.50
2019-04-16T11:03:49.741Z,19.06
2019-04-16T11:04:49.721Z,18.75
2019-04-16T11:05:49.718Z,17.19
2019-04-16T11:06:49.731Z,17.28
2019-04-16T11:07:49.692Z,17.51
2019-04-16T11:08:49.682Z,17.44
2019-04-16T11:09:49.678Z,17.64
2019-04-16T11:10:49.667Z,17.48
2019-04-16T11:11:49.750Z,17.44
2019-04-16T11:12:49.646Z,17.79
2019-04-16T11:13:59.585Z,17.93
2019-04-16T11:14:50.614Z,17.82
2019-04-16T11:15:49.614Z,17.81
2019-04-16T11:16:49.616Z,17.43
2019-04-16T11:17:49.603Z,18.10
2019-04-16T11:18:49.574Z,18.27
2019-04-16T11:19:52.771Z,17.74
2019-04-16T11:20:49.576Z,17.25
2019-04-16T11:21:49.554Z,17.72
2019-04-16T11:22:49.569Z,17.89
2019-04-16T11:23:49.546Z,18.03
2019-04-16T11:24:49.547Z,18.17
2019-04-16T11:25:49.499Z,18.55
2019-04-16T11:26:49.494Z,18.75
2019-04-16T11:27:49.506Z,18.99
2019-04-16T11:28:49.484Z,18.88
2019-04-16T11:29:49.454Z,19.26
2019-04-16T11:30:49.468Z,19.46
2019-04-16T11:31:49.440Z,19.22
2019-04-16T11:32:49.421Z,17.95
2019-04-16T11:33:49.417Z,17.25
2019-04-16T11:34:49.427Z,17.16
2019-04-16T11:35:52.765Z,17.04
2019-04-16T11:36:49.391Z,16.94
2019-04-16T11:37:49.379Z,16.43
2019-04-16T11:38:49.436Z,16.70
2019-04-16T11:39:49.360Z,17.04
2019-04-16T11:40:49.384Z,17.49
2019-04-16T11:41:49.336Z,17.33
2019-04-16T11:42:49.337Z,17.40
2019-04-16T11:43:49.330Z,17.70
2019-04-16T11:44:50.398Z,17.89
2019-04-16T11:45:49.287Z,17.81
2019-04-16T11:46:49.292Z,17.48
2019-04-16T11:47:49.281Z,17.33
2019-04-16T11:48:50.327Z,17.54
2019-04-16T11:49:49.262Z,17.58
2019-04-16T11:50:49.239Z,17.54
2019-04-16T11:51:49.232Z,17.62
2019-04-16T11:52:49.215Z,17.21
2019-04-16T11:53:49.217Z,17.37
2019-04-16T11:54:49.192Z,17.28
2019-04-16T11:55:49.183Z,17.43
2019-04-16T11:56:49.212Z,17.58
2019-04-16T11:57:49.202Z,17.79
2019-04-16T11:58:49.155Z,17.81
2019-04-16T11:59:49.166Z,17.70
2019-04-16T12:00:49.161Z,17.62
2019-04-16T12:01:49.113Z,16.76
2019-04-16T12:02:49.120Z,16.98
2019-04-16T12:03:49.092Z,17.19
2019-04-16T12:04:49.103Z,17.00
2019-04-16T12:05:49.126Z,17.48
2019-04-16T12:06:49.103Z,17.55
2019-04-16T12:07:49.095Z,17.49
2019-04-16T12:08:49.084Z,17.26
2019-04-16T12:09:49.055Z,16.83
2019-04-16T12:10:49.056Z,16.60
2019-04-16T12:11:49.046Z,16.96
2019-04-16T12:12:49.062Z,17.52
2019-04-16T12:13:49.036Z,18.18
2019-04-16T12:14:49.013Z,18.60
2019-04-16T12:15:48.972Z,18.70
2019-04-16T12:16:48.954Z,18.91
2019-04-16T12:17:49.044Z,19.13
2019-04-16T12:18:48.938Z,19.50
2019-04-16T12:19:48.992Z,19.65
2019-04-16T12:20:48.948Z,19.44
2019-04-16T12:21:48.902Z,19.10
2019-04-16T12:22:48.889Z,19.21
2019-04-16T12:23:49.047Z,19.31
2019-04-16T12:24:48.871Z,19.23
2019-04-16T12:25:48.870Z,19.23
2019-04-16T12:26:48.869Z,19.41
2019-04-16T12:27:48.844Z,19.08
2019-04-16T12:28:48.843Z,18.30
2019-04-16T12:29:48.815Z,18.02
2019-04-16T12:30:48.807Z,17.72
2019-04-16T12:31:48.799Z,18.11
2019-04-16T12:32:48.832Z,18.35
2019-04-16T12:33:48.777Z,18.76
2019-04-16T12:34:51.196Z,18.67
2019-04-16T12:35:48.771Z,17.90
2019-04-16T12:36:48.749Z,17.81
2019-04-16T12:37:48.741Z,17.78
2019-04-16T12:38:48.721Z,17.82
2019-04-16T12:39:48.716Z,17.52
2019-04-16T12:40:48.725Z,17.16
2019-04-16T12:41:48.690Z,17.19
2019-04-16T12:42:48.677Z,17.55
2019-04-16T12:43:51.104Z,17.89
2019-04-16T12:44:48.687Z,17.59
2019-04-16T12:45:48.641Z,17.79
2019-04-16T12:46:48.641Z,17.93
2019-04-16T12:47:48.667Z,18.12
2019-04-16T12:48:48.627Z,17.71
2019-04-16T12:49:48.627Z,17.58
2019-04-16T12:50:48.597Z,17.66
2019-04-16T12:51:48.632Z,18.03
2019-04-16T12:52:48.665Z,18.17
2019-04-16T12:53:53.088Z,18.30
2019-04-16T12:54:49.563Z,18.00
2019-04-16T12:55:48.539Z,17.93
2019-04-16T12:56:48.584Z,18.02
2019-04-16T12:57:48.517Z,17.62
2019-04-16T12:58:50.666Z,17.41
2019-04-16T12:59:48.915Z,17.34
2019-04-16T13:00:48.483Z,17.37
2019-04-16T13:01:48.479Z,17.58
2019-04-16T13:02:48.459Z,17.46
2019-04-16T13:03:52.366Z,17.81
2019-04-16T13:04:48.811Z,17.56